createdAt,value
2022-09-06T00:02:03.306Z,28.27
2022-09-06T00:06:13.509Z,28.73
2022-09-06T00:10:16.795Z,27.10
2022-09-06T00:14:20.137Z,27.87
2022-09-06T00:18:23.838Z,30.17
2022-09-06T00:22:28.523Z,25.70
2022-09-06T00:26:31.941Z,27.73
2022-09-06T00:30:35.564Z,29.47
2022-09-06T00:34:38.842Z,29.07
2022-09-06T00:38:44.514Z,29.93
2022-09-06T00:42:47.802Z,30.73
2022-09-06T00:46:54.225Z,30.10
2022-09-06T00:51:01.601Z,29.33
2022-09-06T00:55:07.663Z,27.97
2022-09-06T00:59:11.419Z,28.53
2022-09-06T01:03:15.468Z,28.40
2022-09-06T01:07:28.999Z,31.30
2022-09-06T01:11:50.910Z,28.93
2022-09-06T01:16:03.214Z,27.97
2022-09-06T01:20:35.237Z,27.20
2022-09-06T01:24:59.869Z,28.43
2022-09-06T01:29:10.312Z,27.77
2022-09-06T01:33:20.871Z,27.80
2022-09-06T01:37:24.993Z,29.00
2022-09-06T01:41:28.567Z,27.90
2022-09-06T01:45:42.394Z,29.07
2022-09-06T01:49:55.370Z,27.50
2022-09-06T01:54:38.111Z,27.53
2022-09-06T01:58:58.773Z,28.83
2022-09-06T02:03:10.394Z,29.57
2022-09-06T02:07:20.778Z,30.03
2022-09-06T02:11:26.851Z,27.83
2022-09-06T02:15:33.564Z,29.30
2022-09-06T02:19:44.907Z,31.40
2022-09-06T02:23:49.991Z,31.70
2022-09-06T02:27:53.403Z,29.40
2022-09-06T02:32:01.415Z,29.73
2022-09-06T02:36:09.664Z,30.73
2022-09-06T02:40:13.628Z,30.47
2022-09-06T02:44:17.237Z,31.40
2022-09-06T02:48:20.575Z,36.00
2022-09-06T02:52:25.944Z,31.00
2022-09-06T02:56:29.213Z,31.77
2022-09-06T03:00:32.919Z,29.23
2022-09-06T03:04:36.161Z,30.97
2022-09-06T03:08:40.823Z,30.87
2022-09-06T03:12:44.410Z,30.60
2022-09-06T03:16:48.006Z,30.83
2022-09-06T03:20:51.638Z,30.40
2022-09-06T03:24:56.235Z,31.63
2022-09-06T03:28:59.508Z,30.27
2022-09-06T03:33:03.124Z,33.93
2022-09-06T03:37:06.634Z,31.33
2022-09-06T03:41:11.313Z,31.80
2022-09-06T03:45:14.818Z,32.13
2022-09-06T03:49:18.131Z,32.33
2022-09-06T03:53:22.329Z,30.47
2022-09-06T03:57:27.030Z,29.23
2022-09-06T04:01:30.522Z,29.57
2022-09-06T04:05:33.833Z,32.87
2022-09-06T04:09:37.901Z,29.87
2022-09-06T04:13:42.785Z,29.80
2022-09-06T04:17:46.690Z,29.40
2022-09-06T04:21:49.942Z,32.10
2022-09-06T04:25:55.505Z,31.73
2022-09-06T04:30:00.188Z,31.50
2022-09-06T04:34:03.487Z,31.57
2022-09-06T04:38:07.716Z,31.07
2022-09-06T04:42:11.049Z,34.70
2022-09-06T04:46:21.085Z,32.00
2022-09-06T04:50:24.515Z,32.83
2022-09-06T04:54:27.749Z,32.50
2022-09-06T04:58:31.142Z,30.37
2022-09-06T05:02:35.954Z,34.17
2022-09-06T05:06:40.150Z,30.20
2022-09-06T05:10:47.576Z,31.37
2022-09-06T05:14:51.306Z,33.77
2022-09-06T05:18:56.061Z,34.03
2022-09-06T05:22:59.538Z,31.93
2022-09-06T05:27:04.554Z,33.87
2022-09-06T05:31:09.545Z,32.90
2022-09-06T05:35:14.533Z,33.23
2022-09-06T05:39:19.678Z,33.40
2022-09-06T05:43:22.952Z,35.57
2022-09-06T05:47:26.330Z,35.50
2022-09-06T05:51:31.289Z,36.37
2022-09-06T05:55:34.562Z,32.93
2022-09-06T05:59:37.792Z,35.47
2022-09-06T06:03:41.041Z,35.13
2022-09-06T06:07:45.718Z,33.57
2022-09-06T06:11:48.972Z,35.33
2022-09-06T06:15:52.321Z,38.23
2022-09-06T06:19:55.910Z,36.37
2022-09-06T06:24:02.275Z,38.37
2022-09-06T06:28:05.564Z,37.80
2022-09-06T06:32:09.033Z,37.00
2022-09-06T06:36:22.598Z,41.23
2022-09-06T06:40:27.773Z,36.63
2022-09-06T06:44:31.139Z,39.80
2022-09-06T06:48:35.020Z,37.83
2022-09-06T06:52:38.333Z,37.30
2022-09-06T06:56:44.897Z,36.77
2022-09-06T07:00:48.555Z,33.37
2022-09-06T07:04:51.897Z,33.90
2022-09-06T07:08:55.249Z,30.67
2022-09-06T07:13:00.099Z,28.30
2022-09-06T07:17:07.408Z,27.87
2022-09-06T07:25:37.327Z,24.83
2022-09-06T07:29:41.971Z,23.90
2022-09-06T07:33:45.284Z,22.00
2022-09-06T07:37:55.325Z,21.17
2022-09-06T07:41:58.620Z,22.23
2022-09-06T07:46:05.641Z,20.20
2022-09-06T07:54:33.161Z,18.43
2022-09-06T07:58:36.539Z,18.23
2022-09-06T08:02:41.606Z,17.33
2022-09-06T08:11:12.086Z,17.13
2022-09-06T08:15:15.694Z,16.83
2022-09-06T08:19:20.282Z,16.33
2022-09-06T08:23:23.684Z,15.93
2022-09-06T08:27:27.086Z,16.57
2022-09-06T08:31:32.276Z,16.50
2022-09-06T08:35:37.011Z,14.70
2022-09-06T08:39:40.327Z,16.00
2022-09-06T08:48:17.088Z,13.30
2022-09-06T08:57:23.927Z,12.67
2022-09-06T09:01:34.926Z,11.87
2022-09-06T09:05:40.064Z,12.20
2022-09-06T09:09:44.741Z,14.23
2022-09-06T09:13:55.982Z,14.27
2022-09-06T09:18:01.119Z,12.53
2022-09-06T09:22:04.518Z,13.30
2022-09-06T09:26:14.266Z,14.87
2022-09-06T09:34:41.295Z,16.37
2022-09-06T09:38:45.999Z,15.47
2022-09-06T09:42:51.277Z,13.53
2022-09-06T09:46:54.720Z,12.67
2022-09-06T09:50:58.020Z,14.40
2022-09-06T09:55:03.670Z,13.10
2022-09-06T09:59:19.949Z,14.37
2022-09-06T10:03:30.139Z,13.80
2022-09-06T10:07:34.915Z,14.00
2022-09-06T10:11:49.323Z,14.23
2022-09-06T10:15:55.542Z,12.43
2022-09-06T10:20:01.687Z,11.93
2022-09-06T10:24:26.232Z,11.93
2022-09-06T10:28:32.667Z,12.10
2022-09-06T10:32:43.149Z,11.23
2022-09-06T10:36:56.981Z,10.97
2022-09-06T10:41:21.324Z,10.77
2022-09-06T10:45:43.996Z,10.30
2022-09-06T10:49:55.494Z,9.47
2022-09-06T10:54:06.856Z,9.73
2022-09-06T11:02:28.322Z,10.60
2022-09-06T11:06:36.259Z,10.80
2022-09-06T11:10:45.411Z,10.67
2022-09-06T11:14:48.955Z,10.63
2022-09-06T11:18:57.855Z,9.90
2022-09-06T11:23:35.214Z,9.60
2022-09-06T11:27:41.626Z,9.03
2022-09-06T11:36:21.417Z,9.00
2022-09-06T11:40:28.884Z,9.00
2022-09-06T11:45:16.651Z,8.17
2022-09-06T11:49:35.022Z,9.17
2022-09-06T11:54:05.786Z,7.70
2022-09-06T11:58:21.872Z,7.17
2022-09-06T12:02:35.557Z,7.83
2022-09-06T12:06:41.897Z,8.10
2022-09-06T12:10:52.561Z,8.03
2022-09-06T12:14:57.953Z,7.93
2022-09-06T12:19:03.980Z,7.70
2022-09-06T12:23:07.500Z,7.33
2022-09-06T12:27:15.883Z,7.77
2022-09-06T12:31:34.269Z,7.33
2022-09-06T12:40:02.121Z,7.93
2022-09-06T12:44:07.506Z,6.97
2022-09-06T12:48:16.681Z,7.70
2022-09-06T12:52:21.398Z,7.60
2022-09-06T12:56:26.896Z,8.00
2022-09-06T13:00:35.548Z,7.73
2022-09-06T13:04:44.234Z,8.97
2022-09-06T13:08:50.001Z,7.50
2022-09-06T13:12:54.884Z,8.60
2022-09-06T13:16:58.261Z,7.57
2022-09-06T13:21:05.117Z,7.03
2022-09-06T13:25:19.876Z,8.00
2022-09-06T13:29:25.501Z,8.90
2022-09-06T13:33:29.433Z,8.43
2022-09-06T13:37:36.444Z,10.00
2022-09-06T13:41:42.763Z,9.87
2022-09-06T13:45:47.303Z,9.43
2022-09-06T13:49:55.247Z,9.90
2022-09-06T13:54:07.841Z,8.93
2022-09-06T13:58:11.060Z,8.20
2022-09-06T14:02:17.930Z,9.30
2022-09-06T14:06:21.246Z,8.50
2022-09-06T14:10:26.203Z,9.40
2022-09-06T14:14:29.914Z,8.20
2022-09-06T14:18:33.556Z,8.70
2022-09-06T14:22:36.781Z,8.77
2022-09-06T14:26:41.377Z,9.93
2022-09-06T14:30:44.702Z,10.00
2022-09-06T14:34:48.190Z,9.93
2022-09-06T14:38:52.180Z,9.80
2022-09-06T14:42:58.398Z,9.80
2022-09-06T14:47:01.670Z,9.17
2022-09-06T14:51:12.109Z,10.03
2022-09-06T14:55:15.848Z,9.93
2022-09-06T14:59:20.584Z,9.90
2022-09-06T15:03:23.810Z,10.13
2022-09-06T15:07:27.255Z,9.20
2022-09-06T15:11:34.630Z,10.13
2022-09-06T15:15:39.464Z,9.53
2022-09-06T15:19:42.820Z,10.67
2022-09-06T15:23:46.054Z,9.70
2022-09-06T15:27:49.706Z,8.37
2022-09-06T15:31:54.948Z,10.27
2022-09-06T15:35:58.717Z,9.80
2022-09-06T15:40:02.096Z,11.00
2022-09-06T15:44:09.821Z,10.57
2022-09-06T15:48:15.265Z,9.67
2022-09-06T15:52:18.570Z,10.53
2022-09-06T15:56:22.461Z,12.03
2022-09-06T16:00:25.742Z,10.47
2022-09-06T16:04:30.359Z,9.43
2022-09-06T16:08:34.090Z,8.83
2022-09-06T16:12:37.450Z,7.60
2022-09-06T16:16:42.428Z,7.80
2022-09-06T16:20:47.273Z,11.73
2022-09-06T16:24:50.493Z,7.50
2022-09-06T16:28:54.385Z,7.57
2022-09-06T16:32:57.623Z,8.93
2022-09-06T16:37:08.025Z,7.50
2022-09-06T16:41:14.530Z,8.43
2022-09-06T16:45:17.993Z,9.60
2022-09-06T16:49:21.559Z,9.47
2022-09-06T16:53:26.199Z,8.93
2022-09-06T16:57:29.460Z,9.10
2022-09-06T17:01:33.640Z,9.20
2022-09-06T17:05:37.416Z,8.73
2022-09-06T17:09:42.035Z,9.97
2022-09-06T17:13:47.401Z,10.33
2022-09-06T17:17:50.861Z,10.00
2022-09-06T17:21:54.107Z,9.20
2022-09-06T17:25:59.197Z,10.70
2022-09-06T17:30:04.412Z,10.23
2022-09-06T17:34:07.993Z,9.67
2022-09-06T17:38:11.964Z,9.80
2022-09-06T17:42:17.023Z,8.20
2022-09-06T17:46:20.706Z,8.23
2022-09-06T17:50:25.187Z,6.93
2022-09-06T17:54:28.734Z,6.80
2022-09-06T17:58:34.177Z,7.07
2022-09-06T18:02:38.409Z,7.13
2022-09-06T18:06:43.405Z,8.77
2022-09-06T18:10:47.260Z,7.50
2022-09-06T18:14:52.179Z,7.40
2022-09-06T18:18:57.086Z,7.33
2022-09-06T18:23:00.903Z,8.00
2022-09-06T18:27:04.530Z,17.50
2022-09-06T18:31:10.995Z,16.60
2022-09-06T18:35:14.798Z,66.10
2022-09-06T18:39:19.401Z,16.20
2022-09-06T18:43:26.080Z,9.83
2022-09-06T18:47:31.189Z,10.63
2022-09-06T18:51:36.005Z,14.27
2022-09-06T18:55:44.226Z,14.27
2022-09-06T18:59:47.857Z,14.60
2022-09-06T19:04:04.112Z,15.50
2022-09-06T19:08:10.029Z,14.10
2022-09-06T19:12:13.688Z,13.87
2022-09-06T19:16:17.581Z,15.60
2022-09-06T19:20:23.765Z,17.30
2022-09-06T19:24:27.846Z,21.13
2022-09-06T19:28:33.377Z,16.50
2022-09-06T19:32:39.635Z,16.27
2022-09-06T19:36:52.925Z,16.23
2022-09-06T19:41:05.780Z,15.73
2022-09-06T19:45:12.850Z,14.80
2022-09-06T19:49:18.682Z,16.13
2022-09-06T19:53:24.126Z,16.40
2022-09-06T19:57:27.823Z,15.97
2022-09-06T20:01:33.058Z,15.67
2022-09-06T20:05:37.091Z,17.53
2022-09-06T20:09:42.196Z,17.10
2022-09-06T20:13:47.548Z,17.30
2022-09-06T20:17:53.987Z,17.07
2022-09-06T20:22:00.977Z,17.03
2022-09-06T20:26:08.065Z,16.23
2022-09-06T20:30:12.953Z,15.67
2022-09-06T20:34:20.364Z,15.33
2022-09-06T20:38:25.873Z,14.77
2022-09-06T20:42:31.950Z,16.77
2022-09-06T20:46:37.048Z,14.87
2022-09-06T20:50:41.320Z,15.67
2022-09-06T20:54:45.829Z,14.73
2022-09-06T20:58:53.782Z,16.13
2022-09-06T21:02:58.093Z,16.10
2022-09-06T21:07:02.008Z,15.63
2022-09-06T21:11:06.927Z,16.80
2022-09-06T21:15:12.258Z,17.97
2022-09-06T21:19:16.026Z,17.50
2022-09-06T21:23:19.290Z,16.37
2022-09-06T21:27:22.650Z,17.53
2022-09-06T21:31:28.852Z,16.37
2022-09-06T21:35:35.363Z,14.70
2022-09-06T21:39:39.269Z,14.57
2022-09-06T21:43:43.489Z,15.20
2022-09-06T21:47:48.157Z,16.83
2022-09-06T21:51:51.578Z,15.43
2022-09-06T21:56:00.205Z,18.70
2022-09-06T22:00:03.819Z,18.30
2022-09-06T22:04:08.893Z,18.17
2022-09-06T22:08:12.238Z,16.60
2022-09-06T22:12:15.542Z,17.33
2022-09-06T22:16:20.923Z,16.43
2022-09-06T22:20:25.653Z,16.33
2022-09-06T22:24:29.144Z,16.43
2022-09-06T22:28:32.624Z,16.67
2022-09-06T22:32:36.089Z,14.93
2022-09-06T22:36:41.413Z,19.27
2022-09-06T22:40:44.784Z,16.40
2022-09-06T22:44:48.176Z,17.37
2022-09-06T22:48:52.241Z,13.17
2022-09-06T22:52:57.007Z,15.23
2022-09-06T22:57:00.451Z,15.70
2022-09-06T23:01:09.142Z,15.50
2022-09-06T23:05:12.553Z,14.67
2022-09-06T23:09:17.485Z,15.10
2022-09-06T23:13:20.803Z,13.53
2022-09-06T23:17:24.171Z,14.37
2022-09-06T23:21:28.174Z,15.90
2022-09-06T23:25:33.063Z,15.93
2022-09-06T23:29:36.344Z,16.80
2022-09-06T23:33:40.670Z,16.73
2022-09-06T23:37:44.020Z,17.13
2022-09-06T23:41:48.755Z,18.13
2022-09-06T23:45:52.181Z,17.23
2022-09-06T23:49:55.481Z,23.37
2022-09-06T23:53:59.030Z,17.87
2022-09-06T23:58:03.696Z,17.00
